createdAt,value
2018-06-04T00:00:15.522Z,19.29
2018-06-04T00:01:25.489Z,19.2
2018-06-04T00:02:35.474Z,19.27
2018-06-04T00:03:45.458Z,19.24
2018-06-04T00:04:55.166Z,19.32
2018-06-04T00:06:05.140Z,19.23
2018-06-04T00:07:15.113Z,19.23
2018-06-04T00:08:24.824Z,19.22
2018-06-04T00:09:34.544Z,19.27
2018-06-04T00:10:44.256Z,19.23
2018-06-04T00:11:53.712Z,19.34
2018-06-04T00:13:03.692Z,19.34
2018-06-04T00:14:13.665Z,19.26
2018-06-04T00:15:23.389Z,19.29
2018-06-04T00:16:33.370Z,19.32
2018-06-04T00:17:43.086Z,19.27
2018-06-04T00:18:53.078Z,19.24
2018-06-04T00:20:03.058Z,19.27
2018-06-04T00:21:13.027Z,19.22
2018-06-04T00:22:22.765Z,19.2
2018-06-04T00:23:32.749Z,19.23
2018-06-04T00:24:42.729Z,19.17
2018-06-04T00:25:52.751Z,19.16
2018-06-04T00:27:02.730Z,19.16
2018-06-04T00:28:12.712Z,19.17
2018-06-04T00:29:22.702Z,19.09
2018-06-04T00:30:32.421Z,19.05
2018-06-04T00:31:42.394Z,19.11
2018-06-04T00:32:52.384Z,19.08
2018-06-04T00:34:02.139Z,19.05
2018-06-04T00:35:12.112Z,19.05
2018-06-04T00:36:21.818Z,19.09
2018-06-04T00:37:31.766Z,19.05
2018-06-04T00:38:41.738Z,18.97
2018-06-04T00:39:51.702Z,19.07
2018-06-04T00:41:01.420Z,19.07
2018-06-04T00:42:11.144Z,19.08
2018-06-04T00:43:21.120Z,19.04
2018-06-04T00:44:31.084Z,19.04
2018-06-04T00:45:41.058Z,19
2018-06-04T00:46:51.031Z,19
2018-06-04T00:48:00.999Z,19.11
2018-06-04T00:49:10.716Z,19.01
2018-06-04T00:50:20.678Z,19.08
2018-06-04T00:51:30.669Z,19.11
2018-06-04T00:52:40.644Z,19.08
2018-06-04T00:53:50.619Z,19.08
2018-06-04T00:55:00.323Z,19.07
2018-06-04T00:56:10.320Z,19.08
2018-06-04T00:57:20.281Z,18.98
2018-06-04T00:58:30.247Z,19.05
2018-06-04T00:59:40.231Z,19.11
2018-06-04T01:00:50.205Z,19.17
2018-06-04T01:02:00.179Z,19.08
2018-06-04T01:03:10.162Z,19.08
2018-06-04T01:04:19.627Z,19.11
2018-06-04T01:05:29.348Z,19.08
2018-06-04T01:06:39.053Z,19.05
2018-06-04T01:07:48.773Z,19.08
2018-06-04T01:08:58.750Z,19.05
2018-06-04T01:10:08.462Z,19.11
2018-06-04T01:11:18.451Z,19.07
2018-06-04T01:12:28.435Z,19.09
2018-06-04T01:13:38.406Z,19.15
2018-06-04T01:14:48.379Z,19.16
2018-06-04T01:15:58.345Z,19.15
2018-06-04T01:17:08.067Z,19.15
2018-06-04T01:18:18.039Z,19.2
2018-06-04T01:19:27.513Z,19.17
2018-06-04T01:20:37.478Z,19.11
2018-06-04T01:21:47.182Z,19
2018-06-04T01:22:57.157Z,19.08
2018-06-04T01:24:07.139Z,19.2
2018-06-04T01:25:17.106Z,19.16
2018-06-04T01:26:27.079Z,19.07
2018-06-04T01:27:37.043Z,19.01
2018-06-04T01:28:45.973Z,19.08
2018-06-04T01:29:55.957Z,19.08
2018-06-04T01:31:05.410Z,19.05
2018-06-04T01:32:15.392Z,19.17
2018-06-04T01:33:25.358Z,19.12
2018-06-04T01:34:35.338Z,19.08
2018-06-04T01:35:45.309Z,19.07
2018-06-04T01:36:55.284Z,19.09
2018-06-04T01:38:04.997Z,19.05
2018-06-04T01:39:14.971Z,19.05
2018-06-04T01:40:24.941Z,19.08
2018-06-04T01:41:34.650Z,19.07
2018-06-04T01:42:44.359Z,19.08
2018-06-04T01:43:54.327Z,19.12
2018-06-04T01:45:04.298Z,19.05
2018-06-04T01:46:14.279Z,19.12
2018-06-04T01:47:24.256Z,19.05
2018-06-04T01:48:33.724Z,19
2018-06-04T01:49:43.443Z,18.97
2018-06-04T01:50:53.426Z,19.04
2018-06-04T01:52:03.394Z,18.94
2018-06-04T01:53:13.106Z,19.05
2018-06-04T01:54:22.809Z,18.97
2018-06-04T01:55:32.808Z,18.91
2018-06-04T01:56:42.820Z,18.89
2018-06-04T01:57:52.554Z,18.88
2018-06-04T01:59:02.530Z,18.89
2018-06-04T02:00:12.502Z,18.83
2018-06-04T02:01:22.479Z,18.89
2018-06-04T02:02:32.446Z,18.74
2018-06-04T02:03:42.424Z,18.73
2018-06-04T02:04:52.137Z,18.74
2018-06-04T02:06:02.106Z,18.7
2018-06-04T02:07:12.081Z,18.73
2018-06-04T02:08:21.790Z,18.67
2018-06-04T02:09:31.756Z,18.71
2018-06-04T02:10:41.207Z,18.63
2018-06-04T02:11:51.173Z,18.58
2018-06-04T02:13:01.151Z,18.64
2018-06-04T02:14:10.863Z,18.55
2018-06-04T02:15:20.575Z,18.58
2018-06-04T02:16:30.537Z,18.45
2018-06-04T02:17:40.241Z,18.53
2018-06-04T02:18:50.216Z,18.45
2018-06-04T02:20:00.195Z,18.55
2018-06-04T02:21:10.176Z,18.45
2018-06-04T02:22:19.632Z,18.39
2018-06-04T02:23:29.593Z,18.43
2018-06-04T02:24:39.568Z,18.34
2018-06-04T02:25:49.529Z,18.45
2018-06-04T02:26:59.497Z,18.34
2018-06-04T02:28:09.474Z,18.3
2018-06-04T02:29:19.443Z,18.34
2018-06-04T02:30:29.414Z,18.33
2018-06-04T02:31:39.388Z,18.37
2018-06-04T02:32:49.356Z,18.37
2018-06-04T02:33:59.341Z,18.37
2018-06-04T02:35:09.347Z,18.34
2018-06-04T02:36:19.075Z,18.36
2018-06-04T02:37:29.067Z,18.37
2018-06-04T02:38:39.037Z,18.27
2018-06-04T02:39:48.749Z,18.33
2018-06-04T02:40:58.733Z,18.33
2018-06-04T02:42:08.716Z,18.3
2018-06-04T02:43:18.430Z,18.23
2018-06-04T02:44:28.197Z,18.3
2018-06-04T02:45:38.199Z,18.24
2018-06-04T02:46:48.408Z,18.27
2018-06-04T02:47:58.388Z,18.21
2018-06-04T02:49:08.386Z,18.19
2018-06-04T02:50:18.255Z,18.23
2018-06-04T02:51:27.988Z,18.21
2018-06-04T02:52:37.974Z,18.23
2018-06-04T02:53:47.944Z,18.26
2018-06-04T02:54:57.668Z,18.21
2018-06-04T02:56:07.686Z,18.24
2018-06-04T02:57:17.418Z,18.09
2018-06-04T02:58:27.404Z,18.19
2018-06-04T02:59:37.459Z,18.26
2018-06-04T03:00:47.164Z,18.19
2018-06-04T03:01:56.367Z,18.24
2018-06-04T03:03:06.084Z,18.09
2018-06-04T03:04:16.156Z,18.09
2018-06-04T03:05:26.143Z,18.13
2018-06-04T03:06:36.115Z,18.11
2018-06-04T03:07:46.115Z,18.11
2018-06-04T03:08:55.831Z,18.11
2018-06-04T03:10:05.804Z,18.09
2018-06-04T03:11:15.513Z,18.09
2018-06-04T03:12:25.485Z,18.03
2018-06-04T03:13:35.211Z,18.05
2018-06-04T03:14:44.920Z,17.98
2018-06-04T03:15:54.903Z,18
2018-06-04T03:17:04.880Z,18.02
2018-06-04T03:18:14.594Z,18.02
2018-06-04T03:19:24.558Z,18
2018-06-04T03:20:34.527Z,18
2018-06-04T03:21:44.491Z,17.95
2018-06-04T03:22:54.462Z,18
2018-06-04T03:24:04.445Z,17.98
2018-06-04T03:25:13.904Z,18
2018-06-04T03:26:23.896Z,18.06
2018-06-04T03:27:33.866Z,18.02
2018-06-04T03:28:43.576Z,17.93
2018-06-04T03:29:53.557Z,17.93
2018-06-04T03:31:03.549Z,17.91
2018-06-04T03:32:13.277Z,17.9
2018-06-04T03:33:22.984Z,17.91
2018-06-04T03:34:32.972Z,17.93
2018-06-04T03:35:42.943Z,17.88
2018-06-04T03:36:52.663Z,17.97
2018-06-04T03:38:02.626Z,17.94
2018-06-04T03:39:12.615Z,17.97
2018-06-04T03:40:22.579Z,17.95
2018-06-04T03:41:32.558Z,17.95
2018-06-04T03:42:42.254Z,17.97
2018-06-04T03:43:51.969Z,17.95
2018-06-04T03:45:01.686Z,17.95
2018-06-04T03:46:11.659Z,18.02
2018-06-04T03:47:21.634Z,17.95
2018-06-04T03:48:31.341Z,17.91
2018-06-04T03:49:40.794Z,18
2018-06-04T03:50:50.762Z,18.03
2018-06-04T03:52:00.516Z,18.03
2018-06-04T03:53:10.306Z,18
2018-06-04T03:54:20.021Z,17.91
2018-06-04T03:55:29.994Z,18.06
2018-06-04T03:56:39.980Z,18.06
2018-06-04T03:57:49.955Z,18.09
2018-06-04T03:58:59.667Z,18.11
2018-06-04T04:00:09.389Z,18.08
2018-06-04T04:01:19.186Z,18.09
2018-06-04T04:02:29.152Z,18.06
2018-06-04T04:03:39.135Z,18.06
2018-06-04T04:04:49.117Z,18.12
2018-06-04T04:05:59.080Z,18.13
2018-06-04T04:07:08.799Z,18.13
2018-06-04T04:08:18.579Z,18.11
2018-06-04T04:09:28.216Z,18.13
2018-06-04T04:10:37.930Z,18.28
2018-06-04T04:11:47.643Z,18.3
2018-06-04T04:12:57.351Z,18.24
2018-06-04T04:14:07.091Z,18.26
2018-06-04T04:15:17.064Z,18.24
2018-06-04T04:16:27.038Z,18.24
2018-06-04T04:17:37.007Z,18.28
2018-06-04T04:18:46.976Z,18.28
2018-06-04T04:19:56.956Z,18.39
2018-06-04T04:21:06.952Z,18.3
2018-06-04T04:22:16.691Z,18.31
2018-06-04T04:23:26.655Z,18.39
2018-06-04T04:24:36.362Z,18.34
2018-06-04T04:25:46.168Z,18.27
2018-06-04T04:26:56.138Z,18.39
2018-06-04T04:28:05.968Z,18.33
2018-06-04T04:29:15.934Z,18.37
2018-06-04T04:30:25.648Z,18.41
2018-06-04T04:31:35.374Z,18.42
2018-06-04T04:32:45.343Z,18.43
2018-06-04T04:33:55.312Z,18.52
2018-06-04T04:35:05.027Z,18.55
2018-06-04T04:36:14.735Z,18.6
2018-06-04T04:37:24.707Z,18.66
2018-06-04T04:38:34.425Z,18.7
2018-06-04T04:39:44.132Z,18.68
2018-06-04T04:40:53.853Z,18.74
2018-06-04T04:42:03.573Z,18.79
2018-06-04T04:43:13.288Z,18.76
2018-06-04T04:44:23.282Z,18.88
2018-06-04T04:45:33.246Z,18.86
2018-06-04T04:46:43.346Z,18.94
2018-06-04T04:47:53.478Z,18.91
2018-06-04T04:49:03.193Z,19.04
2018-06-04T04:50:13.165Z,19.05
2018-06-04T04:51:22.881Z,19.07
2018-06-04T04:52:32.850Z,19.05
2018-06-04T04:53:42.820Z,19.2
2018-06-04T04:54:52.793Z,19.2
2018-06-04T04:56:02.760Z,19.24
2018-06-04T04:57:12.486Z,19.27
2018-06-04T04:58:22.194Z,19.29
2018-06-04T04:59:32.158Z,19.27
2018-06-04T05:00:41.975Z,19.23
2018-06-04T05:01:51.959Z,19.27
2018-06-04T05:03:01.952Z,19.39
2018-06-04T05:04:11.934Z,19.45
2018-06-04T05:05:21.638Z,19.45
2018-06-04T05:06:31.626Z,19.48
2018-06-04T05:07:41.338Z,19.52
2018-06-04T05:08:51.329Z,19.53
2018-06-04T05:10:01.305Z,19.56
2018-06-04T05:11:11.283Z,19.62
2018-06-04T05:12:21.272Z,19.57
2018-06-04T05:13:30.993Z,19.56
2018-06-04T05:14:40.701Z,19.56
2018-06-04T05:15:50.699Z,19.63
2018-06-04T05:17:00.431Z,19.7
2018-06-04T05:18:10.415Z,19.71
2018-06-04T05:19:20.403Z,19.72
2018-06-04T05:20:30.369Z,19.7
2018-06-04T05:21:40.095Z,19.78
2018-06-04T05:22:50.081Z,19.71
2018-06-04T05:23:59.792Z,19.9
2018-06-04T05:25:09.765Z,19.82
2018-06-04T05:26:19.223Z,19.85
2018-06-04T05:27:29.194Z,19.9
2018-06-04T05:28:39.182Z,19.94
2018-06-04T05:29:49.162Z,20.04
2018-06-04T05:30:58.885Z,19.96
2018-06-04T05:32:08.889Z,20.02
2018-06-04T05:33:18.628Z,20.02
2018-06-04T05:34:28.608Z,20
2018-06-04T05:35:38.597Z,19.99
2018-06-04T05:36:48.582Z,19.94
2018-06-04T05:37:58.572Z,20.04
2018-06-04T05:39:08.548Z,20.17
2018-06-04T05:40:18.548Z,20.1
2018-06-04T05:41:28.267Z,20.26
2018-06-04T05:42:38.249Z,20.21
2018-06-04T05:43:47.968Z,20.26
2018-06-04T05:44:57.937Z,20.21
2018-06-04T05:46:07.967Z,20.32
2018-06-04T05:47:17.944Z,20.36
2018-06-04T05:48:27.661Z,20.33
2018-06-04T05:49:37.388Z,20.49
2018-06-04T05:50:47.351Z,20.44
2018-06-04T05:51:57.075Z,20.52
2018-06-04T05:53:06.534Z,20.48
2018-06-04T05:54:16.528Z,20.55
2018-06-04T05:55:26.512Z,20.63
2018-06-04T05:56:36.483Z,20.66
2018-06-04T05:57:46.203Z,20.73
2018-06-04T05:58:56.189Z,20.77
2018-06-04T06:00:06.216Z,20.8
2018-06-04T06:01:15.951Z,20.85
2018-06-04T06:02:25.940Z,20.88
2018-06-04T06:03:35.943Z,20.88
2018-06-04T06:04:45.657Z,20.92
2018-06-04T06:05:55.646Z,20.93
2018-06-04T06:07:05.612Z,20.93
2018-06-04T06:08:15.593Z,20.92
2018-06-04T06:09:25.086Z,20.88
2018-06-04T06:10:35.090Z,20.93
2018-06-04T06:11:45.082Z,20.93
2018-06-04T06:12:55.053Z,20.86
2018-06-04T06:14:05.079Z,20.92
2018-06-04T06:15:15.203Z,20.9
2018-06-04T06:16:24.962Z,20.9
2018-06-04T06:17:34.455Z,20.92
2018-06-04T06:18:44.182Z,20.88
2018-06-04T06:19:54.348Z,20.95
2018-06-04T06:21:04.349Z,20.9
2018-06-04T06:22:14.346Z,20.89
2018-06-04T06:23:24.399Z,21.04
2018-06-04T06:24:34.161Z,21.07
2018-06-04T06:25:44.145Z,21.07
2018-06-04T06:26:54.111Z,21.13
2018-06-04T06:28:04.140Z,21.04
2018-06-04T06:29:14.119Z,21.04
2018-06-04T06:30:23.836Z,21.11
2018-06-04T06:31:33.844Z,21.03
2018-06-04T06:32:43.578Z,21.11
2018-06-04T06:33:53.656Z,21.1
2018-06-04T06:35:03.638Z,21.1
2018-06-04T06:36:13.354Z,21.28
2018-06-04T06:37:23.074Z,21.33
2018-06-04T06:38:32.522Z,21.3
2018-06-04T06:39:42.512Z,21.4
2018-06-04T06:40:52.237Z,21.37
2018-06-04T06:42:02.255Z,21.41
2018-06-04T06:43:12.270Z,21.45
2018-06-04T06:44:22.251Z,21.54
2018-06-04T06:45:31.980Z,21.51
2018-06-04T06:46:41.976Z,21.56
2018-06-04T06:47:51.954Z,21.48
2018-06-04T06:49:02.130Z,21.5
2018-06-04T06:50:12.291Z,21.51
2018-06-04T06:51:22.127Z,21.47
2018-06-04T06:52:31.846Z,21.63
2018-06-04T06:53:41.827Z,21.6
2018-06-04T06:54:51.821Z,21.69
2018-06-04T06:56:01.535Z,21.8
2018-06-04T06:57:11.518Z,22
2018-06-04T06:58:21.565Z,22
2018-06-04T06:59:31.576Z,22.03
2018-06-04T07:00:41.554Z,22.03
2018-06-04T07:01:51.537Z,22.12
2018-06-04T07:03:01.319Z,22.08
2018-06-04T07:04:11.027Z,22.14
2018-06-04T07:05:21.008Z,22.15
2018-06-04T07:06:30.997Z,22.14
2018-06-04T07:07:40.815Z,22.22
2018-06-04T07:08:50.556Z,22.25
2018-06-04T07:10:00.553Z,22.37
2018-06-04T07:11:10.593Z,22.44
2018-06-04T07:12:20.600Z,22.43
2018-06-04T07:13:30.600Z,22.53
2018-06-04T07:14:40.677Z,22.47
2018-06-04T07:15:50.651Z,22.46
2018-06-04T07:17:00.647Z,22.37
2018-06-04T07:18:10.372Z,22.34
2018-06-04T07:19:20.368Z,22.33
2018-06-04T07:20:30.370Z,22.37
2018-06-04T07:21:40.369Z,22.36
2018-06-04T07:22:50.367Z,22.51
2018-06-04T07:24:00.348Z,22.63
2018-06-04T07:25:10.339Z,22.74
2018-06-04T07:26:20.367Z,22.74
2018-06-04T07:27:30.110Z,22.92
2018-06-04T07:28:40.121Z,22.84
2018-06-04T07:29:50.150Z,22.84
2018-06-04T07:31:00.137Z,22.76
2018-06-04T07:32:10.125Z,22.76
2018-06-04T07:33:19.591Z,22.76
2018-06-04T07:34:29.315Z,22.7
2018-06-04T07:35:39.029Z,22.7
2018-06-04T07:36:48.740Z,22.73
2018-06-04T07:37:58.465Z,22.73
2018-06-04T07:39:07.929Z,22.78
2018-06-04T07:40:17.920Z,22.81
2018-06-04T07:41:28.085Z,22.8
2018-06-04T07:42:37.838Z,22.83
2018-06-04T07:43:48.021Z,22.86
2018-06-04T07:44:58.002Z,22.89
2018-06-04T07:46:07.725Z,22.86
2018-06-04T07:47:17.719Z,22.95
2018-06-04T07:48:27.706Z,23.02
2018-06-04T07:49:37.432Z,22.98
2018-06-04T07:50:47.426Z,22.84
2018-06-04T07:51:57.170Z,22.84
2018-06-04T07:53:07.211Z,22.96
2018-06-04T07:54:17.231Z,23.1
2018-06-04T07:55:26.975Z,23.07
2018-06-04T07:56:36.951Z,23.04
2018-06-04T07:57:46.944Z,23.04
2018-06-04T07:58:56.685Z,22.89
2018-06-04T08:00:06.727Z,22.76
2018-06-04T08:01:16.704Z,22.92
2018-06-04T08:02:26.691Z,22.74
2018-06-04T08:03:36.429Z,22.88
2018-06-04T08:04:45.881Z,23.02
2018-06-04T08:05:55.862Z,23.1
2018-06-04T08:07:05.850Z,23.18
2018-06-04T08:08:15.811Z,23.32
2018-06-04T08:09:25.541Z,23.45
2018-06-04T08:10:35.538Z,23.44
2018-06-04T08:11:45.528Z,23.71
2018-06-04T08:12:55.272Z,23.69
2018-06-04T08:14:05.454Z,23.74
2018-06-04T08:15:14.928Z,23.86
2018-06-04T08:16:24.941Z,23.92
2018-06-04T08:17:34.928Z,24.1
2018-06-04T08:18:44.961Z,24.14
2018-06-04T08:19:54.950Z,24.04
2018-06-04T08:21:04.681Z,24.04
2018-06-04T08:22:14.658Z,23.91
2018-06-04T08:23:24.649Z,23.66
2018-06-04T08:24:34.639Z,23.51
2018-06-04T08:25:44.383Z,23.44
2018-06-04T08:26:54.382Z,23.39
2018-06-04T08:28:03.878Z,23.47
2018-06-04T08:29:13.665Z,23.45
2018-06-04T08:30:23.449Z,23.51
2018-06-04T08:31:33.452Z,23.59
2018-06-04T08:32:43.453Z,23.66
2018-06-04T08:33:53.192Z,23.59
2018-06-04T08:35:03.177Z,23.63
2018-06-04T08:36:13.188Z,23.66
2018-06-04T08:37:23.187Z,23.94
2018-06-04T08:38:33.017Z,24.18
2018-06-04T08:39:43.067Z,24.47
2018-06-04T08:40:53.056Z,24.92
2018-06-04T08:42:02.783Z,25.26
2018-06-04T08:43:12.786Z,25.4
2018-06-04T08:44:22.759Z,25.56
2018-06-04T08:45:32.876Z,25.43
2018-06-04T08:46:43.013Z,25.3
2018-06-04T08:47:52.740Z,25.48
2018-06-04T08:49:02.758Z,25.54
2018-06-04T08:50:12.750Z,25.73
2018-06-04T08:51:22.753Z,25.93
2018-06-04T08:52:32.755Z,26.06
2018-06-04T08:53:42.772Z,26.18
2018-06-04T08:54:52.784Z,26.36
2018-06-04T08:56:02.725Z,26.68
2018-06-04T08:57:12.972Z,26.92
2018-06-04T08:58:22.998Z,26.82
2018-06-04T08:59:33.000Z,26.71
2018-06-04T09:00:42.779Z,26.83
2018-06-04T09:01:52.783Z,27.13
2018-06-04T09:03:02.791Z,27.08
2018-06-04T09:04:12.775Z,27.18
2018-06-04T09:05:22.767Z,27.47
2018-06-04T09:06:32.757Z,27.66
2018-06-04T09:07:42.782Z,27.73
2018-06-04T09:08:52.805Z,27.45
2018-06-04T09:10:02.671Z,26.63
2018-06-04T09:11:12.414Z,26.16
2018-06-04T09:12:22.150Z,25.78
2018-06-04T09:13:31.880Z,25.51
2018-06-04T09:14:41.609Z,25.39
2018-06-04T09:15:51.812Z,25.37
2018-06-04T09:17:01.547Z,25.54
2018-06-04T09:18:11.553Z,25.68
2018-06-04T09:19:21.564Z,25.68
2018-06-04T09:20:31.300Z,25.81
2018-06-04T09:21:41.042Z,25.67
2018-06-04T09:22:50.863Z,25.68
2018-06-04T09:24:00.836Z,25.93
2018-06-04T09:25:10.828Z,26.34
2018-06-04T09:26:20.825Z,26.68
2018-06-04T09:27:30.541Z,26.93
2018-06-04T09:28:40.540Z,27.38
2018-06-04T09:29:50.560Z,27.53
2018-06-04T09:31:00.299Z,27.43
2018-06-04T09:32:10.287Z,26.89
2018-06-04T09:33:20.354Z,26.51
2018-06-04T09:34:30.086Z,26.3
2018-06-04T09:35:39.904Z,26.13
2018-06-04T09:36:49.624Z,26.06
2018-06-04T09:37:59.356Z,26.18
2018-06-04T09:39:09.360Z,26.31
2018-06-04T09:40:19.364Z,26.31
2018-06-04T09:41:29.355Z,26.39
2018-06-04T09:42:39.341Z,26.34
2018-06-04T09:43:49.072Z,26.23
2018-06-04T09:44:59.061Z,26.26
2018-06-04T09:46:09.077Z,26.03
2018-06-04T09:47:19.096Z,26.18
2018-06-04T09:48:29.095Z,26.34
2018-06-04T09:49:39.100Z,26.78
2018-06-04T09:50:49.095Z,26.53
2018-06-04T09:51:58.839Z,26.3
2018-06-04T09:53:08.755Z,26.34
2018-06-04T09:54:18.914Z,26.45
2018-06-04T09:55:28.929Z,26.61
2018-06-04T09:56:38.915Z,26.56
2018-06-04T09:57:48.655Z,26.59
2018-06-04T09:58:58.629Z,26.63
2018-06-04T10:00:08.363Z,26.68
2018-06-04T10:01:18.340Z,27.04
2018-06-04T10:02:28.089Z,27.4
2018-06-04T10:03:38.068Z,27.85
2018-06-04T10:04:48.408Z,27.73
2018-06-04T10:05:58.447Z,27.76
2018-06-04T10:07:08.441Z,27.6
2018-06-04T10:08:18.449Z,27.4
2018-06-04T10:09:28.451Z,27.35
2018-06-04T10:10:38.439Z,27.5
2018-06-04T10:11:48.434Z,27.5
2018-06-04T10:12:58.429Z,27.57
2018-06-04T10:14:08.406Z,27.86
2018-06-04T10:15:18.418Z,27.72
2018-06-04T10:16:28.432Z,27.63
2018-06-04T10:17:38.205Z,27.45
2018-06-04T10:18:47.962Z,27.29
2018-06-04T10:19:57.696Z,26.97
2018-06-04T10:21:07.417Z,26.79
2018-06-04T10:22:17.150Z,26.6
2018-06-04T10:23:26.894Z,26.44
2018-06-04T10:24:36.898Z,26.16
2018-06-04T10:25:46.896Z,26.01
2018-06-04T10:26:56.886Z,25.96
2018-06-04T10:28:06.621Z,26.26
2018-06-04T10:29:16.614Z,26.46
2018-06-04T10:30:26.359Z,26.85
2018-06-04T10:31:36.356Z,27.35
2018-06-04T10:32:46.328Z,27.58
2018-06-04T10:33:56.054Z,27.85
2018-06-04T10:35:06.042Z,28.13
2018-06-04T10:36:15.789Z,28.37
2018-06-04T10:37:25.516Z,28.53
2018-06-04T10:38:35.529Z,28.67
2018-06-04T10:39:45.271Z,28.49
2018-06-04T10:40:55.275Z,28.6
2018-06-04T10:42:05.036Z,28.52
2018-06-04T10:43:15.032Z,28.25
2018-06-04T10:44:25.032Z,28.22
2018-06-04T10:45:35.021Z,28.15
2018-06-04T10:46:45.111Z,28.23
2018-06-04T10:47:55.124Z,28.59
2018-06-04T10:49:04.846Z,28.7
2018-06-04T10:50:14.600Z,28.84
2018-06-04T10:51:24.325Z,29.09
2018-06-04T10:52:34.321Z,29.1
2018-06-04T10:53:44.080Z,28.68
2018-06-04T10:54:54.087Z,28.67
2018-06-04T10:56:04.094Z,28.57
2018-06-04T10:57:14.132Z,28.75
2018-06-04T10:58:24.149Z,28.87
2018-06-04T10:59:34.145Z,28.43
2018-06-04T11:00:44.149Z,27.94
2018-06-04T11:01:54.155Z,27.98
2018-06-04T11:03:04.147Z,28.18
2018-06-04T11:04:14.148Z,28.4
2018-06-04T11:05:23.894Z,28.77
2018-06-04T11:06:33.632Z,28.7
2018-06-04T11:07:43.912Z,28.74
2018-06-04T11:08:53.911Z,28.84
2018-06-04T11:10:03.897Z,28.57
2018-06-04T11:11:13.897Z,28.33
2018-06-04T11:12:23.883Z,28.28
2018-06-04T11:13:33.868Z,28.45
2018-06-04T11:14:43.635Z,28.52
2018-06-04T11:15:53.648Z,28.52
2018-06-04T11:17:03.434Z,28.7
2018-06-04T11:18:13.428Z,28.89
2018-06-04T11:19:23.442Z,29.3
2018-06-04T11:20:33.441Z,29.83
2018-06-04T11:21:43.448Z,29.84
2018-06-04T11:22:53.182Z,29.84
2018-06-04T11:24:03.198Z,30.17
2018-06-04T11:25:12.927Z,30.52
2018-06-04T11:26:22.683Z,30.99
2018-06-04T11:27:32.432Z,31.26
2018-06-04T11:28:42.167Z,31
2018-06-04T11:29:52.164Z,31.23
2018-06-04T11:31:01.887Z,31.55
2018-06-04T11:32:11.370Z,31.57
2018-06-04T11:33:20.843Z,31.14
2018-06-04T11:34:30.323Z,30.62
2018-06-04T11:35:39.799Z,29.5
2018-06-04T11:36:49.271Z,28.87
2018-06-04T11:37:59.274Z,28.9
2018-06-04T11:39:09.295Z,28.93
2018-06-04T11:40:19.022Z,28.89
2018-06-04T11:41:28.765Z,28.93
2018-06-04T11:42:38.749Z,28.83
2018-06-04T11:43:48.486Z,28.55
2018-06-04T11:44:58.254Z,28.59
2018-06-04T11:46:08.276Z,28.56
2018-06-04T11:47:18.267Z,28.33
2018-06-04T11:48:28.258Z,28.25
2018-06-04T11:49:38.245Z,28.06
2018-06-04T11:50:48.256Z,27.55
2018-06-04T11:51:58.243Z,27.43
2018-06-04T11:53:07.985Z,27.67
2018-06-04T11:54:17.714Z,27.67
2018-06-04T11:55:27.465Z,27.73
2018-06-04T11:56:37.512Z,27.78
2018-06-04T11:57:47.321Z,27.82
2018-06-04T11:58:57.320Z,27.91
2018-06-04T12:00:07.334Z,28.03
2018-06-04T12:01:17.322Z,28.23
2018-06-04T12:02:27.036Z,28.52
2018-06-04T12:03:36.767Z,28.5
2018-06-04T12:04:46.499Z,28.35
2018-06-04T12:05:56.636Z,28.31
2018-06-04T12:07:06.764Z,28.37
2018-06-04T12:08:16.748Z,28.33
2018-06-04T12:09:26.765Z,28.47
2018-06-04T12:10:36.744Z,28.82
2018-06-04T12:11:47.030Z,28.89
2018-06-04T12:12:57.165Z,29.09
2018-06-04T12:14:07.156Z,29.15
2018-06-04T12:15:16.887Z,29.22
2018-06-04T12:16:26.613Z,29.24
2018-06-04T12:17:36.392Z,29.35
2018-06-04T12:18:46.131Z,29.39
2018-06-04T12:19:55.857Z,29.67
2018-06-04T12:21:05.860Z,29.9
2018-06-04T12:22:15.844Z,29.92
2018-06-04T12:23:25.835Z,30.32
2018-06-04T12:24:35.846Z,30.39
2018-06-04T12:25:45.835Z,30.86
2018-06-04T12:26:55.564Z,30.85
2018-06-04T12:28:05.553Z,30.88
2018-06-04T12:29:15.614Z,30.96
2018-06-04T12:30:25.597Z,30.73
2018-06-04T12:31:35.335Z,30.73
2018-06-04T12:32:45.337Z,30.26
2018-06-04T12:33:55.371Z,30.29
2018-06-04T12:35:05.344Z,30.49
2018-06-04T12:36:15.062Z,30.56
2018-06-04T12:37:24.522Z,30.99
2018-06-04T12:38:34.511Z,30.99
2018-06-04T12:39:44.232Z,31.17
2018-06-04T12:40:54.227Z,30.62
2018-06-04T12:42:04.209Z,29.65
2018-06-04T12:43:14.225Z,29.55
2018-06-04T12:44:24.211Z,29.57
2018-06-04T12:45:34.173Z,29.65
2018-06-04T12:46:44.146Z,29.61
2018-06-04T12:47:54.131Z,29.47
2018-06-04T12:49:04.117Z,29.37
2018-06-04T12:50:14.098Z,28.87
2018-06-04T12:51:24.104Z,28.74
2018-06-04T12:52:33.824Z,28.92
2018-06-04T12:53:43.814Z,29.16
2018-06-04T12:54:53.813Z,29.42
2018-06-04T12:56:03.794Z,29.42
2018-06-04T12:57:13.849Z,29.35
2018-06-04T12:58:23.844Z,29.25
2018-06-04T12:59:33.560Z,29.18
2018-06-04T13:00:43.549Z,28.94
2018-06-04T13:01:53.282Z,28.65
2018-06-04T13:03:03.282Z,28.4
2018-06-04T13:04:13.268Z,28.27
2018-06-04T13:05:23.251Z,28.34
2018-06-04T13:06:33.276Z,28.5
2018-06-04T13:07:43.001Z,28.56
2018-06-04T13:08:52.972Z,28.71
2018-06-04T13:10:02.447Z,28.77
2018-06-04T13:11:12.187Z,28.82
2018-06-04T13:12:21.941Z,29.18
2018-06-04T13:13:31.674Z,29.28
2018-06-04T13:14:41.677Z,29.59
2018-06-04T13:15:51.412Z,29.84
2018-06-04T13:17:01.135Z,30.11
2018-06-04T13:18:11.120Z,30.23
2018-06-04T13:19:20.845Z,30.27
2018-06-04T13:20:30.847Z,30.44
2018-06-04T13:21:41.054Z,30.43
2018-06-04T13:22:51.038Z,30.54
2018-06-04T13:24:01.010Z,30.55
2018-06-04T13:25:10.995Z,29.79
2018-06-04T13:26:20.998Z,29.18
2018-06-04T13:27:30.980Z,28.83
2018-06-04T13:28:40.979Z,28.43
2018-06-04T13:29:50.711Z,28.33
2018-06-04T13:31:00.427Z,28.45
2018-06-04T13:32:10.414Z,28.7
2018-06-04T13:33:20.139Z,28.97
2018-06-04T13:34:30.116Z,28.84
2018-06-04T13:35:40.097Z,29.05
2018-06-04T13:36:50.096Z,29.09
2018-06-04T13:38:00.110Z,29.15
2018-06-04T13:39:10.085Z,29.06
2018-06-04T13:40:20.101Z,29.03
2018-06-04T13:41:30.082Z,28.97
2018-06-04T13:42:40.061Z,29.13
2018-06-04T13:43:49.779Z,29.58
2018-06-04T13:44:59.770Z,29.83
2018-06-04T13:46:09.752Z,29.92
2018-06-04T13:47:19.723Z,30.18
2018-06-04T13:48:29.464Z,30.26
2018-06-04T13:49:39.444Z,30.2
2018-06-04T13:50:49.442Z,30.43
2018-06-04T13:51:59.442Z,30.81
2018-06-04T13:53:09.435Z,30.92
2018-06-04T13:54:19.418Z,30.48
2018-06-04T13:55:28.884Z,30.43
2018-06-04T13:56:38.910Z,29.95
2018-06-04T13:57:48.923Z,29.61
2018-06-04T13:58:58.908Z,29.44
2018-06-04T14:00:08.892Z,29.49
2018-06-04T14:01:18.631Z,29.32
2018-06-04T14:02:28.618Z,28.89
2018-06-04T14:03:38.608Z,28.86
2018-06-04T14:04:48.606Z,28.57
2018-06-04T14:05:58.582Z,28.62
2018-06-04T14:07:08.568Z,28.72
2018-06-04T14:08:18.555Z,28.49
2018-06-04T14:09:28.569Z,28.33
2018-06-04T14:10:38.291Z,28.13
2018-06-04T14:11:48.258Z,28.27
2018-06-04T14:12:57.982Z,28.47
2018-06-04T14:14:07.977Z,28.65
2018-06-04T14:15:17.692Z,28.8
2018-06-04T14:16:27.417Z,28.78
2018-06-04T14:17:37.421Z,29.03
2018-06-04T14:18:47.409Z,29.27
2018-06-04T14:19:57.400Z,28.9
2018-06-04T14:21:07.384Z,28.78
2018-06-04T14:22:17.360Z,29.15
2018-06-04T14:23:26.842Z,29.44
2018-06-04T14:24:36.819Z,29.43
2018-06-04T14:25:46.531Z,29.44
2018-06-04T14:26:56.255Z,29.42
2018-06-04T14:28:06.250Z,29.1
2018-06-04T14:29:16.237Z,29.39
2018-06-04T14:30:26.246Z,29.61
2018-06-04T14:31:36.232Z,29.89
2018-06-04T14:32:45.963Z,29.87
2018-06-04T14:33:55.956Z,30.03
2018-06-04T14:35:05.681Z,30.4
2018-06-04T14:36:15.657Z,30.92
2018-06-04T14:37:25.111Z,30.98
2018-06-04T14:38:35.091Z,30.76
2018-06-04T14:39:45.080Z,30.54
2018-06-04T14:40:55.083Z,30.36
2018-06-04T14:42:05.081Z,30.16
2018-06-04T14:43:15.047Z,30.17
2018-06-04T14:44:25.246Z,29.74
2018-06-04T14:45:35.293Z,29.55
2018-06-04T14:46:44.770Z,29.46
2018-06-04T14:47:54.492Z,29.58
2018-06-04T14:49:04.482Z,29.81
2018-06-04T14:50:14.482Z,29.94
2018-06-04T14:51:24.219Z,29.8
2018-06-04T14:52:34.231Z,29.77
2018-06-04T14:53:44.246Z,29.92
2018-06-04T14:54:54.245Z,29.76
2018-06-04T14:56:04.232Z,29.68
2018-06-04T14:57:13.728Z,29.47
2018-06-04T14:58:23.717Z,29.3
2018-06-04T14:59:33.438Z,28.77
2018-06-04T15:00:43.411Z,28.57
2018-06-04T15:01:53.381Z,28.47
2018-06-04T15:03:03.106Z,28.45
2018-06-04T15:04:13.076Z,28.37